Hualapai, Arizona
Current Conditions -  °F | °C
As of 7:54 PM on Friday 21 Nov 2014 (Local Time) from KGCN Reporting Station
Clear Clear  
Wind Chill: -8°   Ceiling: Unl
Heat Index: -5°   Visibility: 10mi
Dew Point: -12°   Wind: 5mph
Humidity: 60%   Direction: 40°NE
Pressure: 30.09"   Gusts: NA
Location:  35.9°N, 113.11°W
Report Text: KGCN 220254Z 04004KT 10SM CLR M05/M12 A3009 RMK AO2 SLP209 T10501117 53015
Loading
Personal Weather Stations






























Interactive Weather Map New forecast layout! Learn more

10-Day Weather Forecast

Advertisements
Track Severe Weather on mobile